aviador You're here:

VGHS Decoded Metar

in
Report Time2018-01-16 21:00:00
UTC Time2018-01-16 21:17:24
Flight Rules lifr LIFR
Wind280° at 03 kt
W.Decomp.*RWY 32: 2.3 kt HW 1.9 kt LCW
W.Rank280° ranks 13
Current wind is below 280° avg. (6.0)
Visibility1100 m
Phenomena:Mist
Clouds:N/A
Expected CloudBase > 1,200 ft AGL from Temp-Dew spread
CeilingNone
Temp15°C
Dew Point12°C (82% RH)
AAT14.5°C
QNH1013 hPa
Raw Report
METAR VGHS 162100Z 28003KT 1100 BR NSC 15/12 Q1013
TEMPO S/VIS 0800M=

Extra information for VGHS:More info

Social comments